createdAt,value
2019-02-17T00:00:40.159Z,38.57
2019-02-17T00:02:12.161Z,44.63
2019-02-17T00:03:43.427Z,44.57
2019-02-17T00:05:15.195Z,39.17
2019-02-17T00:06:46.494Z,37.30
2019-02-17T00:08:17.787Z,41.00
2019-02-17T00:09:49.182Z,42.33
2019-02-17T00:11:20.769Z,42.53
2019-02-17T00:12:52.076Z,43.20
2019-02-17T00:14:23.978Z,46.47
2019-02-17T00:15:55.527Z,45.03
2019-02-17T00:17:27.243Z,52.47
2019-02-17T00:18:58.522Z,52.77
2019-02-17T00:20:30.320Z,57.47
2019-02-17T00:22:01.696Z,58.73
2019-02-17T00:23:33.001Z,61.83
2019-02-17T00:25:04.311Z,55.67
2019-02-17T00:26:35.899Z,65.40
2019-02-17T00:28:07.227Z,201.57
2019-02-17T00:29:38.519Z,108.43
2019-02-17T00:31:09.810Z,57.70
2019-02-17T00:32:41.577Z,46.47
2019-02-17T00:34:13.773Z,49.90
2019-02-17T00:35:45.238Z,41.70
2019-02-17T00:37:17.107Z,44.35
2019-02-17T00:38:49.002Z,40.70
2019-02-17T00:40:20.337Z,50.60
2019-02-17T00:41:51.626Z,46.27
2019-02-17T00:43:22.946Z,40.40
2019-02-17T00:44:54.743Z,40.40
2019-02-17T00:46:26.035Z,42.20
2019-02-17T00:47:57.437Z,47.43
2019-02-17T00:49:28.712Z,52.47
2019-02-17T00:51:00.518Z,49.93
2019-02-17T00:52:31.847Z,51.23
2019-02-17T00:54:03.195Z,44.00
2019-02-17T00:55:34.492Z,56.80
2019-02-17T00:57:06.014Z,59.63
2019-02-17T00:58:37.320Z,47.67
2019-02-17T01:00:08.659Z,39.13
2019-02-17T01:01:39.957Z,37.47
2019-02-17T01:03:11.577Z,31.40
2019-02-17T01:04:42.875Z,32.37
2019-02-17T01:06:14.447Z,32.80
2019-02-17T01:07:45.779Z,35.43
2019-02-17T01:09:17.074Z,37.57
2019-02-17T01:10:49.489Z,32.97
2019-02-17T01:12:20.963Z,35.90
2019-02-17T01:13:52.278Z,32.03
2019-02-17T01:15:23.577Z,33.03
2019-02-17T01:16:54.946Z,34.87
2019-02-17T01:18:26.860Z,34.30
2019-02-17T01:19:58.144Z,34.23
2019-02-17T01:21:29.742Z,32.40
2019-02-17T01:23:01.069Z,38.77
2019-02-17T01:24:32.377Z,35.80
2019-02-17T01:26:03.746Z,33.30
2019-02-17T01:27:35.389Z,35.30
2019-02-17T01:29:06.698Z,36.63
2019-02-17T01:30:38.000Z,34.27
2019-02-17T01:32:09.372Z,37.13
2019-02-17T01:33:40.976Z,36.40
2019-02-17T01:35:12.314Z,36.67
2019-02-17T01:36:43.838Z,40.60
2019-02-17T01:38:15.194Z,50.97
2019-02-17T01:39:46.494Z,49.00
2019-02-17T01:41:17.801Z,48.60
2019-02-17T01:42:49.522Z,51.37
2019-02-17T01:44:20.864Z,53.90
2019-02-17T01:45:52.156Z,46.27
2019-02-17T01:47:23.456Z,48.40
2019-02-17T01:48:54.995Z,47.10
2019-02-17T01:50:26.350Z,45.07
2019-02-17T01:51:58.195Z,39.97
2019-02-17T01:53:29.480Z,41.93
2019-02-17T01:55:00.797Z,42.30
2019-02-17T01:56:32.156Z,45.40
2019-02-17T01:58:04.059Z,41.73
2019-02-17T01:59:35.389Z,37.57
2019-02-17T02:01:06.689Z,33.77
2019-02-17T02:02:37.998Z,35.63
2019-02-17T02:04:09.715Z,34.87
2019-02-17T02:05:41.011Z,42.30
2019-02-17T02:07:12.523Z,41.37
2019-02-17T02:08:43.854Z,41.13
2019-02-17T02:10:15.167Z,38.23
2019-02-17T02:11:46.510Z,37.93
2019-02-17T02:13:18.388Z,41.37
2019-02-17T02:14:49.708Z,40.60
2019-02-17T02:16:21.032Z,37.70
2019-02-17T02:17:52.374Z,33.83
2019-02-17T02:19:24.157Z,33.93
2019-02-17T02:20:55.466Z,32.80
2019-02-17T02:22:27.251Z,30.90
2019-02-17T02:23:58.627Z,35.30
2019-02-17T02:25:29.938Z,30.23
2019-02-17T02:27:01.235Z,25.43
2019-02-17T02:28:32.948Z,29.13
2019-02-17T02:30:04.302Z,34.20
2019-02-17T02:31:35.627Z,34.27
2019-02-17T02:33:06.924Z,29.57
2019-02-17T02:34:38.590Z,28.33
2019-02-17T02:36:09.936Z,29.17
2019-02-17T02:37:41.804Z,30.20
2019-02-17T02:39:13.114Z,27.43
2019-02-17T02:40:44.422Z,31.57
2019-02-17T02:42:15.727Z,33.97
2019-02-17T02:43:47.265Z,32.93
2019-02-17T02:45:18.597Z,36.07
2019-02-17T02:46:49.897Z,36.57
2019-02-17T02:48:21.211Z,32.00
2019-02-17T02:49:53.040Z,33.53
2019-02-17T02:51:24.364Z,32.83
2019-02-17T02:52:56.247Z,29.27
2019-02-17T02:54:27.565Z,31.33
2019-02-17T02:55:58.866Z,30.80
2019-02-17T02:57:30.160Z,35.80
2019-02-17T02:59:01.896Z,35.63
2019-02-17T03:00:33.178Z,33.23
2019-02-17T03:02:04.507Z,38.63
2019-02-17T03:03:35.809Z,34.47
2019-02-17T03:05:07.495Z,28.40
2019-02-17T03:06:38.816Z,32.60
2019-02-17T03:08:10.209Z,28.73
2019-02-17T03:09:41.514Z,34.43
2019-02-17T03:11:12.873Z,32.87
2019-02-17T03:12:44.182Z,32.50
2019-02-17T03:14:15.829Z,27.53
2019-02-17T03:15:47.119Z,31.50
2019-02-17T03:17:18.429Z,32.90
2019-02-17T03:18:49.740Z,32.03
2019-02-17T03:20:21.306Z,29.77
2019-02-17T03:21:52.605Z,28.17
2019-02-17T03:23:24.174Z,24.87
2019-02-17T03:24:55.476Z,32.80
2019-02-17T03:26:26.843Z,38.13
2019-02-17T03:27:58.154Z,30.47
2019-02-17T03:29:29.839Z,27.77
2019-02-17T03:31:01.157Z,31.90
2019-02-17T03:32:33.496Z,30.33
2019-02-17T03:34:04.818Z,30.77
2019-02-17T03:35:36.674Z,27.20
2019-02-17T03:37:07.978Z,33.27
2019-02-17T03:38:39.837Z,25.97
2019-02-17T03:40:11.165Z,31.87
2019-02-17T03:41:42.476Z,26.60
2019-02-17T03:43:13.805Z,29.23
2019-02-17T03:44:45.529Z,29.47
2019-02-17T03:46:16.839Z,31.87
2019-02-17T03:47:48.127Z,34.07
2019-02-17T03:49:19.487Z,37.80
2019-02-17T03:50:51.297Z,34.87
2019-02-17T03:52:22.582Z,31.63
2019-02-17T03:53:54.394Z,29.80
2019-02-17T03:55:25.695Z,31.30
2019-02-17T03:56:57.002Z,27.90
2019-02-17T03:58:28.292Z,30.50
2019-02-17T04:00:00.352Z,28.33
2019-02-17T04:01:31.767Z,34.90
2019-02-17T04:03:03.083Z,30.67
2019-02-17T04:04:34.428Z,32.23
2019-02-17T04:06:05.925Z,31.77
2019-02-17T04:07:37.298Z,28.47
2019-02-17T04:09:09.144Z,28.43
2019-02-17T04:10:40.450Z,31.67
2019-02-17T04:12:11.802Z,25.23
2019-02-17T04:13:43.129Z,27.67
2019-02-17T04:15:14.805Z,24.13
2019-02-17T04:16:46.132Z,29.13
2019-02-17T04:18:17.494Z,32.67
2019-02-17T04:19:48.798Z,36.80
2019-02-17T04:21:20.473Z,39.07
2019-02-17T04:22:51.786Z,41.17
2019-02-17T04:24:23.573Z,50.57
2019-02-17T04:25:54.864Z,42.33
2019-02-17T04:27:26.166Z,37.50
2019-02-17T04:28:57.520Z,38.07
2019-02-17T04:30:29.777Z,36.30
2019-02-17T04:32:01.359Z,33.40
2019-02-17T04:33:32.677Z,31.27
2019-02-17T04:35:04.016Z,32.77
2019-02-17T04:36:35.518Z,31.73
2019-02-17T04:38:06.842Z,26.47
2019-02-17T04:39:38.346Z,36.33
2019-02-17T04:41:09.642Z,34.23
2019-02-17T04:42:40.991Z,38.47
2019-02-17T04:44:12.294Z,36.10
2019-02-17T04:45:43.906Z,34.23
2019-02-17T04:47:15.271Z,31.60
2019-02-17T04:48:46.626Z,36.73
2019-02-17T04:50:17.955Z,43.43
2019-02-17T04:51:49.662Z,52.90
2019-02-17T04:53:20.961Z,57.40
2019-02-17T04:54:52.322Z,51.17
2019-02-17T04:56:23.630Z,52.93
2019-02-17T04:57:55.449Z,56.97
2019-02-17T04:59:26.765Z,60.83
2019-02-17T05:00:58.153Z,62.17
2019-02-17T05:02:29.436Z,63.10
2019-02-17T05:04:00.852Z,72.63
2019-02-17T05:05:32.167Z,65.77
2019-02-17T05:07:03.549Z,67.57
2019-02-17T05:08:34.885Z,51.68
2019-02-17T05:10:06.674Z,44.07
2019-02-17T05:11:38.012Z,46.30
2019-02-17T05:13:09.330Z,50.77
2019-02-17T05:14:40.727Z,45.40
2019-02-17T05:16:12.545Z,43.97
2019-02-17T05:17:43.851Z,42.00
2019-02-17T05:19:15.166Z,40.87
2019-02-17T05:20:46.498Z,39.97
2019-02-17T05:22:18.329Z,35.93
2019-02-17T05:23:49.604Z,40.00
2019-02-17T05:25:21.431Z,42.03
2019-02-17T05:26:52.734Z,49.07
2019-02-17T05:28:24.024Z,64.60
2019-02-17T05:29:55.331Z,77.80
2019-02-17T05:31:26.893Z,98.23
2019-02-17T05:32:58.213Z,89.37
2019-02-17T05:34:29.541Z,113.30
2019-02-17T05:36:01.411Z,180.93
2019-02-17T05:37:32.953Z,133.07
2019-02-17T05:39:04.262Z,101.20
2019-02-17T05:40:36.520Z,121.80
2019-02-17T05:42:08.309Z,127.77
2019-02-17T05:43:40.211Z,130.27
2019-02-17T05:45:11.495Z,144.50
2019-02-17T05:46:44.928Z,150.23
2019-02-17T05:48:16.251Z,139.83
2019-02-17T05:49:47.542Z,90.87
2019-02-17T05:51:18.831Z,76.50
2019-02-17T05:52:50.375Z,78.00
2019-02-17T05:54:21.751Z,68.13
2019-02-17T05:55:53.355Z,54.40
2019-02-17T05:57:24.699Z,49.27
2019-02-17T05:58:55.991Z,41.90
2019-02-17T06:00:27.324Z,45.30
2019-02-17T06:01:58.848Z,52.10
2019-02-17T06:03:30.152Z,54.90
2019-02-17T06:05:01.453Z,43.10
2019-02-17T06:06:32.801Z,45.37
2019-02-17T06:08:04.307Z,44.77
2019-02-17T06:09:35.626Z,40.57
2019-02-17T06:11:07.046Z,53.73
2019-02-17T06:12:38.380Z,73.67
2019-02-17T06:14:09.710Z,66.73
2019-02-17T06:15:41.009Z,136.80
2019-02-17T06:17:12.560Z,125.10
2019-02-17T06:18:43.896Z,95.00
2019-02-17T06:20:15.205Z,76.67
2019-02-17T06:21:46.531Z,72.50
2019-02-17T06:23:18.032Z,80.00
2019-02-17T06:24:49.361Z,70.10
2019-02-17T06:26:20.677Z,71.60
2019-02-17T06:27:51.966Z,69.07
2019-02-17T06:29:23.504Z,62.53
2019-02-17T06:30:54.853Z,59.93
2019-02-17T06:32:26.185Z,108.67
2019-02-17T06:33:57.519Z,104.40
2019-02-17T06:35:29.160Z,107.57
2019-02-17T06:37:00.507Z,104.73
2019-02-17T06:38:31.829Z,90.13
2019-02-17T06:40:03.094Z,114.27
2019-02-17T06:41:34.742Z,126.20
2019-02-17T06:43:06.104Z,84.30
2019-02-17T06:44:37.410Z,129.80
2019-02-17T06:46:08.734Z,120.47
2019-02-17T06:47:40.316Z,107.80
2019-02-17T06:49:11.651Z,114.80
2019-02-17T06:50:42.960Z,114.70
2019-02-17T06:52:14.269Z,103.90
2019-02-17T06:53:45.716Z,100.17
2019-02-17T06:55:17.021Z,93.93
2019-02-17T06:56:48.348Z,91.73
2019-02-17T06:58:20.236Z,93.65
2019-02-17T06:59:51.859Z,95.50
2019-02-17T07:01:24.924Z,96.90
2019-02-17T07:02:56.109Z,98.33
2019-02-17T07:04:27.425Z,109.27
2019-02-17T07:06:01.469Z,102.83
2019-02-17T07:07:32.719Z,93.87
2019-02-17T07:09:04.854Z,111.05
2019-02-17T07:10:36.255Z,119.63
2019-02-17T07:12:08.307Z,101.40
2019-02-17T07:13:40.189Z,107.22
2019-02-17T07:15:11.523Z,101.57
2019-02-17T07:16:42.821Z,122.17
2019-02-17T07:18:14.396Z,90.43
2019-02-17T07:19:46.357Z,88.45
2019-02-17T07:21:18.230Z,90.15
2019-02-17T07:22:50.101Z,93.80
2019-02-17T07:24:22.321Z,85.77
2019-02-17T07:25:54.249Z,78.78
2019-02-17T07:27:26.350Z,80.03
2019-02-17T07:28:58.238Z,76.57
2019-02-17T07:30:30.127Z,82.42
2019-02-17T07:32:02.045Z,92.80
2019-02-17T07:33:34.364Z,82.62
2019-02-17T07:35:06.262Z,104.58
2019-02-17T07:36:38.197Z,116.65
2019-02-17T07:38:10.133Z,133.12
2019-02-17T07:39:42.294Z,119.75
2019-02-17T07:41:14.169Z,127.82
2019-02-17T07:42:49.081Z,122.62
2019-02-17T07:44:21.026Z,119.25
2019-02-17T07:45:54.676Z,90.00
2019-02-17T07:47:26.515Z,109.07
2019-02-17T07:48:58.732Z,87.67
2019-02-17T07:50:30.694Z,100.00
2019-02-17T07:52:02.964Z,120.02
2019-02-17T07:53:34.822Z,122.53
2019-02-17T08:01:48.334Z,106.95
2019-02-17T08:03:20.256Z,113.70
2019-02-17T08:04:52.197Z,109.52
2019-02-17T08:06:24.118Z,89.42
2019-02-17T08:07:56.885Z,84.90
2019-02-17T08:09:28.795Z,84.47
2019-02-17T08:11:03.939Z,68.75
2019-02-17T08:12:34.376Z,59.95
2019-02-17T08:14:06.418Z,66.10
2019-02-17T08:15:39.349Z,72.05
2019-02-17T08:17:11.370Z,71.70
2019-02-17T08:18:43.278Z,78.45
2019-02-17T08:20:19.125Z,77.05
2019-02-17T08:21:50.974Z,68.72
2019-02-17T08:23:23.432Z,72.50
2019-02-17T08:24:55.379Z,82.33
2019-02-17T08:26:27.243Z,81.12
2019-02-17T08:27:59.131Z,74.35
2019-02-17T08:29:31.264Z,76.20
2019-02-17T08:31:03.220Z,80.22
2019-02-17T08:32:35.495Z,87.40
2019-02-17T08:34:07.406Z,87.37
2019-02-17T08:35:39.288Z,89.60
2019-02-17T08:37:11.180Z,94.17
2019-02-17T08:38:43.316Z,97.65
2019-02-17T08:40:15.206Z,87.15
2019-02-17T08:41:47.079Z,84.15
2019-02-17T08:43:18.984Z,81.87
2019-02-17T08:44:51.331Z,75.40
2019-02-17T08:46:23.221Z,86.17
2019-02-17T08:47:55.355Z,91.75
2019-02-17T08:49:27.251Z,76.82
2019-02-17T08:50:59.179Z,72.30
2019-02-17T08:52:31.081Z,71.40
2019-02-17T08:54:03.281Z,69.35
2019-02-17T08:55:35.186Z,65.35
2019-02-17T08:57:07.111Z,64.67
2019-02-17T08:58:39.012Z,70.00
2019-02-17T09:00:18.947Z,71.17
2019-02-17T09:01:50.887Z,73.07
2019-02-17T09:03:23.292Z,76.00
2019-02-17T09:04:55.186Z,75.80
2019-02-17T09:06:27.067Z,78.95
2019-02-17T09:07:58.953Z,83.45
2019-02-17T09:09:31.137Z,83.30
2019-02-17T09:11:03.000Z,76.70
2019-02-17T09:12:34.851Z,74.62
2019-02-17T09:14:06.749Z,75.80
2019-02-17T09:15:39.166Z,78.78
2019-02-17T09:17:11.056Z,70.17
2019-02-17T09:18:43.261Z,72.50
2019-02-17T09:20:15.238Z,72.47
2019-02-17T09:21:47.096Z,73.15
2019-02-17T09:23:19.011Z,83.65
2019-02-17T09:24:50.574Z,79.45
2019-02-17T09:26:24.798Z,82.30
2019-02-17T09:27:56.709Z,79.20
2019-02-17T09:29:28.625Z,69.12
2019-02-17T09:31:00.631Z,68.28
2019-02-17T09:32:32.563Z,65.28
2019-02-17T09:34:04.455Z,63.00
2019-02-17T09:35:36.373Z,66.33
2019-02-17T09:37:08.564Z,71.62
2019-02-17T09:38:40.460Z,69.60
2019-02-17T09:40:12.393Z,73.97
2019-02-17T09:41:44.291Z,71.00
2019-02-17T09:43:16.322Z,75.83
2019-02-17T09:44:48.211Z,77.20
2019-02-17T09:46:20.102Z,75.75
2019-02-17T09:47:51.986Z,87.22
2019-02-17T09:49:24.079Z,72.55
2019-02-17T09:50:55.997Z,65.12
2019-02-17T09:52:28.353Z,65.55
2019-02-17T09:53:59.645Z,65.17
2019-02-17T09:55:31.643Z,60.40
2019-02-17T09:57:03.533Z,58.58
2019-02-17T09:58:35.437Z,62.95
2019-02-17T10:00:07.323Z,67.37
2019-02-17T10:01:39.391Z,54.63
2019-02-17T10:03:10.775Z,62.30
2019-02-17T10:04:42.784Z,52.85
2019-02-17T10:06:14.658Z,58.10
2019-02-17T10:07:46.517Z,44.58
2019-02-17T10:09:18.516Z,41.98
2019-02-17T10:10:50.928Z,36.95
2019-02-17T10:12:22.831Z,37.53
2019-02-17T10:13:54.749Z,29.30
2019-02-17T10:15:26.076Z,33.37
2019-02-17T10:16:58.175Z,35.73
2019-02-17T10:18:30.089Z,27.50
2019-02-17T10:20:01.399Z,29.87
2019-02-17T10:21:33.262Z,29.85
2019-02-17T10:23:05.287Z,33.45
2019-02-17T10:24:37.217Z,29.90
2019-02-17T10:26:09.091Z,30.57
2019-02-17T10:27:41.009Z,32.90
2019-02-17T10:29:13.055Z,34.13
2019-02-17T10:30:44.988Z,37.08
2019-02-17T10:32:16.896Z,34.30
2019-02-17T10:33:48.792Z,38.15
2019-02-17T10:35:20.845Z,41.25
2019-02-17T10:36:52.800Z,49.60
2019-02-17T10:38:24.634Z,44.45
2019-02-17T10:39:56.580Z,40.83
2019-02-17T10:41:28.675Z,35.50
2019-02-17T10:43:00.639Z,36.93
2019-02-17T10:44:32.518Z,35.88
2019-02-17T10:46:06.062Z,32.90
2019-02-17T10:47:38.186Z,33.73
2019-02-17T10:49:10.102Z,30.90
2019-02-17T10:50:42.211Z,44.15
2019-02-17T10:52:14.178Z,35.55
2019-02-17T10:53:46.058Z,41.37
2019-02-17T10:55:17.965Z,33.65
2019-02-17T10:56:49.995Z,35.00
2019-02-17T10:58:21.950Z,35.33
2019-02-17T10:59:55.930Z,35.40
2019-02-17T11:01:27.375Z,42.90
2019-02-17T11:02:59.747Z,37.75
2019-02-17T11:04:31.684Z,40.43
2019-02-17T11:06:03.582Z,35.20
2019-02-17T11:07:35.493Z,32.45
2019-02-17T11:09:07.758Z,37.85
2019-02-17T11:10:40.594Z,47.98
2019-02-17T11:12:12.510Z,77.80
2019-02-17T11:13:44.415Z,56.35
2019-02-17T11:15:16.601Z,47.15
2019-02-17T11:16:49.022Z,45.23
2019-02-17T11:18:20.918Z,34.63
2019-02-17T11:19:52.842Z,35.25
2019-02-17T11:21:24.988Z,33.10
2019-02-17T11:22:56.949Z,34.15
2019-02-17T11:24:28.851Z,35.88
2019-02-17T11:26:02.641Z,31.73
2019-02-17T11:27:34.471Z,34.10
2019-02-17T11:29:07.493Z,28.05
2019-02-17T11:30:39.402Z,28.38
2019-02-17T11:32:11.290Z,29.23
2019-02-17T11:33:43.316Z,28.57
2019-02-17T11:35:15.219Z,26.20
2019-02-17T11:36:47.140Z,32.93
2019-02-17T11:38:19.025Z,32.75
2019-02-17T11:39:51.030Z,27.67
2019-02-17T11:41:22.985Z,40.85
2019-02-17T11:42:54.895Z,34.25
2019-02-17T11:44:26.775Z,26.75
2019-02-17T11:45:58.906Z,26.60
2019-02-17T11:47:30.846Z,29.42
2019-02-17T11:49:02.716Z,26.37
2019-02-17T11:50:34.623Z,25.37
2019-02-17T11:52:06.721Z,23.60
2019-02-17T11:53:38.677Z,24.25
2019-02-17T11:55:10.569Z,22.20
2019-02-17T11:56:42.453Z,30.27
2019-02-17T11:58:14.742Z,28.32
2019-02-17T11:59:46.700Z,23.87
2019-02-17T12:01:18.579Z,25.00
2019-02-17T12:02:50.454Z,29.42
2019-02-17T12:04:22.536Z,36.95
2019-02-17T12:05:54.511Z,32.17
2019-02-17T12:07:26.380Z,26.07
2019-02-17T12:08:58.257Z,28.47
2019-02-17T12:10:30.339Z,27.35
2019-02-17T12:12:02.282Z,29.10
2019-02-17T12:13:34.182Z,24.67
2019-02-17T12:15:06.097Z,25.95
2019-02-17T12:16:38.331Z,25.25
2019-02-17T12:18:10.184Z,27.27
2019-02-17T12:19:42.081Z,24.37
2019-02-17T12:21:14.014Z,23.98
2019-02-17T12:22:46.143Z,27.10
2019-02-17T12:24:18.004Z,26.15
2019-02-17T12:25:49.889Z,26.25
2019-02-17T12:27:21.893Z,24.20
2019-02-17T12:28:54.272Z,24.95
2019-02-17T12:30:26.205Z,24.40
2019-02-17T12:31:58.092Z,22.55
2019-02-17T12:33:30.000Z,20.88
2019-02-17T12:35:02.117Z,25.50
2019-02-17T12:36:33.997Z,29.00
2019-02-17T12:38:06.216Z,22.65
2019-02-17T12:39:38.105Z,25.12
2019-02-17T12:41:10.007Z,24.57
2019-02-17T12:42:41.891Z,26.82
2019-02-17T12:44:14.264Z,23.87
2019-02-17T12:45:46.170Z,23.20
2019-02-17T12:47:18.084Z,24.35
2019-02-17T12:48:51.881Z,30.17
2019-02-17T12:50:24.019Z,23.20
2019-02-17T12:51:55.939Z,27.98
2019-02-17T12:53:28.230Z,28.35
2019-02-17T12:55:00.320Z,24.92
2019-02-17T12:56:32.141Z,26.20
2019-02-17T12:58:04.041Z,34.38
2019-02-17T12:59:36.360Z,41.30
2019-02-17T13:01:10.770Z,41.58
2019-02-17T13:02:42.725Z,29.45
2019-02-17T13:04:14.609Z,37.45
2019-02-17T13:05:47.033Z,22.13
2019-02-17T13:07:18.951Z,22.13
2019-02-17T13:08:51.120Z,26.17
2019-02-17T13:10:22.997Z,33.15
2019-02-17T13:11:55.170Z,24.57
2019-02-17T13:13:27.054Z,36.53
2019-02-17T13:14:58.920Z,25.45
2019-02-17T13:16:30.836Z,26.27
2019-02-17T13:18:03.087Z,34.80
2019-02-17T13:19:34.973Z,32.25
2019-02-17T13:21:06.896Z,31.60
2019-02-17T13:22:38.805Z,26.37
2019-02-17T13:24:10.891Z,33.40
2019-02-17T13:25:42.853Z,31.65
2019-02-17T13:27:14.726Z,30.25
2019-02-17T13:28:46.603Z,26.97
2019-02-17T13:30:19.531Z,29.45
2019-02-17T13:31:51.443Z,25.20
2019-02-17T13:33:23.407Z,25.20
2019-02-17T13:34:55.302Z,27.75
2019-02-17T13:36:27.484Z,30.82
2019-02-17T13:37:59.373Z,31.95
2019-02-17T13:39:31.602Z,34.50
2019-02-17T13:41:03.488Z,31.77
2019-02-17T13:42:35.381Z,29.00
2019-02-17T13:44:07.262Z,29.50
2019-02-17T13:45:39.538Z,33.60
2019-02-17T13:47:11.418Z,29.00
2019-02-17T13:48:43.313Z,28.75
2019-02-17T13:50:15.193Z,23.95
2019-02-17T13:51:47.349Z,27.67
2019-02-17T13:53:19.250Z,40.03
2019-02-17T13:54:51.315Z,37.63
2019-02-17T13:56:23.202Z,39.60
2019-02-17T13:57:55.126Z,51.75
2019-02-17T13:59:27.046Z,29.75
2019-02-17T14:00:59.186Z,45.23
2019-02-17T14:02:31.079Z,44.85
2019-02-17T14:04:03.034Z,31.33
2019-02-17T14:05:34.922Z,27.75
2019-02-17T14:07:06.923Z,29.12
2019-02-17T14:08:38.863Z,24.98
2019-02-17T14:10:11.052Z,25.70
2019-02-17T14:11:42.930Z,22.40
2019-02-17T14:13:14.823Z,19.32
2019-02-17T14:14:47.002Z,27.37
2019-02-17T14:16:19.470Z,23.95
2019-02-17T14:17:51.311Z,25.82
2019-02-17T14:19:23.236Z,26.37
2019-02-17T14:20:55.163Z,29.50
2019-02-17T14:22:27.257Z,27.27
2019-02-17T14:23:59.153Z,22.32
2019-02-17T14:25:31.407Z,27.73
2019-02-17T14:27:03.302Z,27.02
2019-02-17T14:28:35.210Z,30.97
2019-02-17T14:30:07.123Z,26.52
2019-02-17T14:31:39.220Z,33.35
2019-02-17T14:33:11.097Z,26.57
2019-02-17T14:34:43.050Z,28.80
2019-02-17T14:36:14.930Z,26.42
2019-02-17T14:37:47.151Z,22.20
2019-02-17T14:39:19.077Z,23.70
2019-02-17T14:40:51.269Z,29.32
2019-02-17T14:42:23.148Z,25.08
2019-02-17T14:43:55.064Z,57.00
2019-02-17T14:45:26.954Z,31.20
2019-02-17T14:46:59.011Z,47.45
2019-02-17T14:48:30.879Z,65.75
2019-02-17T14:50:02.795Z,63.05
2019-02-17T14:51:34.677Z,53.08
2019-02-17T14:53:07.952Z,47.95
2019-02-17T14:54:39.869Z,45.65
2019-02-17T14:56:12.149Z,53.45
2019-02-17T14:57:44.041Z,54.03
2019-02-17T14:59:15.978Z,30.92
2019-02-17T15:00:47.994Z,33.20
2019-02-17T15:02:20.178Z,53.25
2019-02-17T15:03:52.073Z,36.73
2019-02-17T15:05:23.969Z,40.17
2019-02-17T15:06:55.872Z,57.30
2019-02-17T15:08:28.221Z,64.05
2019-02-17T15:10:00.094Z,54.08
2019-02-17T15:11:32.523Z,61.65
2019-02-17T15:13:04.417Z,39.33
2019-02-17T15:14:36.325Z,37.78
2019-02-17T15:16:08.225Z,25.97
2019-02-17T15:17:40.452Z,46.65
2019-02-17T15:19:12.353Z,42.65
2019-02-17T15:20:44.248Z,52.15
2019-02-17T15:22:16.168Z,40.63
2019-02-17T15:23:48.328Z,42.27
2019-02-17T15:25:20.203Z,51.37
2019-02-17T15:26:52.308Z,42.80
2019-02-17T15:28:24.233Z,54.45
2019-02-17T15:29:56.105Z,48.02
2019-02-17T15:31:27.985Z,52.73
2019-02-17T15:33:04.091Z,67.08
2019-02-17T15:34:35.373Z,71.28
2019-02-17T15:36:07.484Z,58.90
2019-02-17T15:37:39.357Z,60.10
2019-02-17T15:39:11.614Z,58.40
2019-02-17T15:40:43.484Z,64.03
2019-02-17T15:42:15.630Z,58.70
2019-02-17T15:43:47.554Z,71.20
2019-02-17T15:45:19.489Z,169.68
2019-02-17T15:46:51.445Z,141.20
2019-02-17T15:48:23.761Z,152.53
2019-02-17T15:49:55.718Z,160.67
2019-02-17T15:51:27.599Z,164.77
2019-02-17T15:52:59.509Z,149.07
2019-02-17T15:54:31.804Z,160.30
2019-02-17T15:56:03.719Z,154.38
2019-02-17T15:57:35.817Z,161.20
2019-02-17T15:59:07.733Z,166.73
2019-02-17T16:00:39.648Z,188.03
2019-02-17T16:02:11.578Z,176.82
2019-02-17T16:03:45.008Z,137.12
2019-02-17T16:05:17.260Z,174.20
2019-02-17T16:06:49.138Z,177.85
2019-02-17T16:08:21.086Z,169.82
2019-02-17T16:09:53.107Z,185.55
2019-02-17T16:11:25.062Z,223.13
2019-02-17T16:12:56.969Z,228.07
2019-02-17T16:14:28.921Z,210.17
2019-02-17T16:16:01.435Z,189.85
2019-02-17T16:17:33.383Z,232.18
2019-02-17T16:19:05.274Z,214.57
2019-02-17T16:20:37.139Z,230.60
2019-02-17T16:22:09.241Z,211.32
2019-02-17T16:23:43.030Z,203.50
2019-02-17T16:25:14.701Z,201.30
2019-02-17T16:26:46.611Z,226.77
2019-02-17T16:28:18.748Z,211.07
2019-02-17T16:29:50.635Z,216.12
2019-02-17T16:31:22.535Z,218.73
2019-02-17T16:32:54.449Z,115.30
2019-02-17T16:34:26.529Z,137.57
2019-02-17T16:35:58.532Z,191.20
2019-02-17T16:37:30.456Z,187.62
2019-02-17T16:39:02.388Z,198.20
2019-02-17T16:40:34.486Z,264.72
2019-02-17T16:42:06.472Z,219.37
2019-02-17T16:43:38.390Z,247.80
2019-02-17T16:45:10.992Z,281.20
2019-02-17T16:46:43.063Z,301.95
2019-02-17T16:48:14.983Z,284.52
2019-02-17T16:49:46.934Z,346.77
2019-02-17T16:51:18.892Z,368.50
2019-02-17T16:52:50.975Z,375.13
2019-02-17T16:54:22.877Z,371.10
2019-02-17T16:55:54.828Z,362.93
2019-02-17T16:57:26.840Z,346.00
2019-02-17T16:59:01.726Z,310.93
2019-02-17T17:00:33.574Z,313.77
2019-02-17T17:02:05.477Z,314.27
2019-02-17T17:03:37.456Z,311.35
2019-02-17T17:05:09.478Z,324.27
2019-02-17T17:06:41.385Z,362.90
2019-02-17T17:08:13.353Z,358.07
2019-02-17T17:09:45.281Z,345.95
2019-02-17T17:11:17.358Z,360.17
2019-02-17T17:12:49.238Z,340.48
2019-02-17T17:14:21.220Z,268.48
2019-02-17T17:15:53.145Z,324.35
2019-02-17T17:17:25.390Z,258.17
2019-02-17T17:18:57.302Z,160.72
2019-02-17T17:20:29.285Z,115.82
2019-02-17T17:22:01.191Z,118.35
2019-02-17T17:23:33.256Z,131.97
2019-02-17T17:25:05.184Z,113.62
2019-02-17T17:26:37.124Z,98.65
2019-02-17T17:28:09.111Z,243.33
2019-02-17T17:29:41.090Z,190.57
2019-02-17T17:31:12.995Z,179.97
2019-02-17T17:32:44.908Z,153.10
2019-02-17T17:34:16.688Z,102.07
2019-02-17T17:35:48.655Z,113.32
2019-02-17T17:37:20.554Z,114.47
2019-02-17T17:38:52.495Z,127.82
2019-02-17T17:40:24.561Z,131.47
2019-02-17T17:41:56.448Z,94.42
2019-02-17T17:43:28.349Z,124.60
2019-02-17T17:45:00.283Z,116.57
2019-02-17T17:46:32.481Z,84.67
2019-02-17T17:48:04.350Z,86.20
2019-02-17T17:49:36.254Z,83.45
2019-02-17T17:51:08.159Z,72.60
2019-02-17T17:52:40.227Z,69.85
2019-02-17T17:54:12.117Z,50.10
2019-02-17T17:55:44.004Z,97.97
2019-02-17T17:57:15.917Z,106.20
2019-02-17T17:58:48.095Z,132.82
2019-02-17T18:00:19.971Z,140.10
2019-02-17T18:01:51.878Z,114.10
2019-02-17T18:03:23.814Z,97.47
2019-02-17T18:04:56.013Z,101.05
2019-02-17T18:06:27.910Z,93.50
2019-02-17T18:07:59.829Z,100.07
2019-02-17T18:09:31.770Z,98.33
2019-02-17T18:11:04.051Z,81.28
2019-02-17T18:12:35.933Z,91.78
2019-02-17T18:14:07.846Z,86.80
2019-02-17T18:15:39.823Z,88.60
2019-02-17T18:17:11.962Z,95.45
2019-02-17T18:18:43.851Z,103.05
2019-02-17T18:20:17.759Z,90.55
2019-02-17T18:21:51.043Z,79.82
2019-02-17T18:23:23.271Z,86.55
2019-02-17T18:24:55.180Z,98.22
2019-02-17T18:26:27.118Z,113.52
2019-02-17T18:27:58.995Z,113.20
2019-02-17T18:29:31.292Z,117.40
2019-02-17T18:31:03.189Z,118.77
2019-02-17T18:32:35.122Z,122.33
2019-02-17T18:34:07.063Z,112.52
2019-02-17T18:35:38.618Z,110.10
2019-02-17T18:37:10.495Z,101.60
2019-02-17T18:38:42.436Z,101.38
2019-02-17T18:40:14.349Z,112.28
2019-02-17T18:41:46.630Z,105.83
2019-02-17T18:43:17.936Z,127.93
2019-02-17T18:44:49.982Z,111.65
2019-02-17T18:46:21.889Z,78.83
2019-02-17T18:47:53.857Z,82.12
2019-02-17T18:49:25.728Z,96.60
2019-02-17T18:50:59.485Z,101.53
2019-02-17T18:52:31.644Z,99.65
2019-02-17T18:54:03.594Z,98.40
2019-02-17T18:55:35.520Z,115.70
2019-02-17T18:57:08.544Z,119.17
2019-02-17T18:58:39.918Z,210.87
2019-02-17T19:00:11.944Z,194.22
2019-02-17T19:01:43.864Z,158.90
2019-02-17T19:03:15.740Z,107.95
2019-02-17T19:04:47.665Z,66.60
2019-02-17T19:06:20.186Z,59.35
2019-02-17T19:07:52.077Z,80.47
2019-02-17T19:09:25.941Z,92.82
2019-02-17T19:10:57.529Z,103.85
2019-02-17T19:12:29.684Z,111.40
2019-02-17T19:14:01.609Z,93.17
2019-02-17T19:15:33.638Z,90.97
2019-02-17T19:17:04.954Z,88.77
2019-02-17T19:18:36.895Z,70.78
2019-02-17T19:20:08.771Z,69.40
2019-02-17T19:21:40.800Z,71.62
2019-02-17T19:23:12.693Z,77.27
2019-02-17T19:24:44.044Z,76.90
2019-02-17T19:26:15.945Z,78.95
2019-02-17T19:27:48.175Z,74.27
2019-02-17T19:29:19.501Z,82.60
2019-02-17T19:30:51.447Z,69.07
2019-02-17T19:32:23.316Z,82.92
2019-02-17T19:33:55.498Z,83.72
2019-02-17T19:35:27.375Z,82.88
2019-02-17T19:36:59.305Z,117.15
2019-02-17T19:38:30.579Z,93.33
2019-02-17T19:40:02.805Z,88.07
2019-02-17T19:41:34.742Z,90.05